Time;durP1;ratioP1;P1;durP2;ratioP2;P2;SDS_P1;SDS_P2;PMS_P1;PMS_P2;Temp;Humidity;BMP_temperature;BMP_pressure;BME280_temperature;BME280_humidity;BME280_pressure;Samples;Min_cycle;Max_cycle;Signal;HPM_P1;HPM_P2
2022/02/26 00:13:31;;;;;;;21.90;8.23;;;;;;;4.70;72.32;100862.67;713797;1174;113900;-82
2022/02/26 00:28:34;;;;;;;19.00;9.15;;;;;;;4.63;72.53;100882.11;713821;1174;114405;-82
2022/02/26 00:43:36;;;;;;;29.60;13.00;;;;;;;4.63;73.93;100908.95;713842;1174;113911;-83
2022/02/26 00:58:38;;;;;;;24.60;11.00;;;;;;;4.81;74.45;100940.08;713821;1174;114937;-82
2022/02/26 01:13:40;;;;;;;19.70;9.00;;;;;;;4.93;74.61;100957.61;714044;1174;114184;-84
2022/02/26 01:28:43;;;;;;;15.83;9.13;;;;;;;4.87;76.08;100970.09;713741;1174;115215;-84
2022/02/26 01:43:45;;;;;;;25.15;11.05;;;;;;;5.04;74.79;100982.20;714083;1174;114212;-84
2022/02/26 01:58:47;;;;;;;27.88;10.45;;;;;;;4.82;76.30;100997.19;713853;1174;115227;-84
2022/02/26 02:13:49;;;;;;;26.67;11.73;;;;;;;4.77;75.82;101009.58;713977;1174;116228;-85
2022/02/26 02:28:51;;;;;;;33.50;12.90;;;;;;;4.70;76.54;101030.77;714321;1174;114971;-84
2022/02/26 02:43:54;;;;;;;22.03;9.93;;;;;;;4.86;77.18;101043.81;713748;1174;115385;-82
2022/02/26 02:58:57;;;;;;;33.20;15.33;;;;;;;4.99;78.20;101056.11;713779;1174;115322;-83
2022/02/26 03:14:00;;;;;;;83.27;28.97;;;;;;;5.05;78.31;101075.74;713265;1174;114675;-82
2022/02/26 03:29:10;;;;;;;28.93;11.60;;;;;;;4.96;78.65;101089.22;714578;1173;115489;-83
2022/02/26 03:44:12;;;;;;;24.67;10.67;;;;;;;4.92;77.99;101114.56;714569;1174;115452;-80
2022/02/26 03:59:15;;;;;;;22.65;11.18;;;;;;;5.02;78.91;101120.13;713090;1174;114313;-75
2022/02/26 04:14:17;;;;;;;18.98;9.30;;;;;;;5.02;79.70;101151.33;713080;1174;114170;-75
2022/02/26 04:29:21;;;;;;;17.98;9.55;;;;;;;5.14;79.55;101168.91;713197;1173;114815;-76
2022/02/26 04:44:25;;;;;;;32.73;13.30;;;;;;;5.22;79.65;101189.33;713312;1174;115331;-76
2022/02/26 04:59:27;;;;;;;19.18;10.33;;;;;;;5.06;81.50;101220.48;713530;1174;114180;-75
2022/02/26 05:14:30;;;;;;;31.05;15.80;;;;;;;5.18;81.35;101257.21;713407;1174;115461;-75
2022/02/26 05:29:33;;;;;;;18.43;10.30;;;;;;;5.27;81.11;101303.58;713304;1174;114221;-75
2022/02/26 05:44:34;;;;;;;77.35;20.20;;;;;;;5.23;80.97;101331.50;712825;1174;115625;-76
2022/02/26 05:59:38;;;;;;;533.28;186.88;;;;;;;5.37;81.94;101340.39;713239;1174;114413;-76
2022/02/26 06:14:40;;;;;;;79.30;33.88;;;;;;;5.59;81.90;101369.63;713261;1174;114493;-76
2022/02/26 06:29:43;;;;;;;42.83;19.13;;;;;;;5.71;81.76;101402.02;713579;1174;115594;-81
2022/02/26 06:44:46;;;;;;;37.57;15.57;;;;;;;5.84;82.32;101447.36;713323;1174;115028;-74
2022/02/26 06:59:48;;;;;;;53.10;23.28;;;;;;;5.69;82.30;101476.78;713586;1174;115580;-73
2022/02/26 07:14:51;;;;;;;44.13;22.68;;;;;;;5.70;83.12;101512.33;713113;1174;115354;-75
2022/02/26 07:29:53;;;;;;;54.58;20.43;;;;;;;5.78;83.20;101543.17;713398;1174;114155;-74
2022/02/26 07:44:55;;;;;;;28.88;15.23;;;;;;;6.22;82.41;101560.23;713437;1173;116659;-73
2022/02/26 08:00:01;;;;;;;25.73;14.70;;;;;;;6.63;81.63;101580.77;713691;1174;115286;-76
2022/02/26 08:15:04;;;;;;;24.80;16.83;;;;;;;7.09;81.74;101604.47;713197;1173;114112;-75
2022/02/26 08:30:10;;;;;;;31.83;16.53;;;;;;;7.46;81.77;101628.63;713563;1173;114830;-76
2022/02/26 08:45:13;;;;;;;20.73;10.75;;;;;;;7.49;81.69;101651.95;714086;1173;115906;-76
2022/02/26 09:00:16;;;;;;;18.60;9.85;;;;;;;8.19;80.72;101673.48;714105;1174;114033;-75
2022/02/26 09:15:18;;;;;;;15.43;8.67;;;;;;;8.25;79.68;101684.44;714567;1174;115564;-74
2022/02/26 09:30:20;;;;;;;19.50;9.95;;;;;;;8.98;77.74;101698.64;714606;1174;114779;-73
2022/02/26 09:45:22;;;;;;;73.33;24.27;;;;;;;10.03;77.42;101725.50;714080;1174;114970;-72
2022/02/26 10:00:25;;;;;;;20.70;10.25;;;;;;;11.41;74.91;101735.78;714078;1174;114716;-72
2022/02/26 10:15:35;;;;;;;93.30;32.73;;;;;;;12.29;72.00;101754.17;714452;1174;115110;-73
2022/02/26 10:30:40;;;;;;;145.80;53.20;;;;;;;12.31;65.60;101762.80;714481;1174;114650;-73
2022/02/26 10:45:44;;;;;;;370.40;132.03;;;;;;;12.35;63.64;101773.92;714348;1174;115779;-73
2022/02/26 11:00:47;;;;;;;357.85;123.83;;;;;;;11.82;63.59;101784.64;714044;1174;116251;-74
2022/02/26 11:15:57;;;;;;;79.40;32.35;;;;;;;11.45;63.75;101795.89;715195;1174;115385;-75
2022/02/26 11:31:04;;;;;;;17.73;10.93;;;;;;;11.54;63.19;101791.80;714880;1172;116248;-74
2022/02/26 11:46:22;;;;;;;22.83;11.15;;;;;;;12.27;63.63;101799.95;714316;1173;115958;-76
2022/02/26 12:01:25;;;;;;;124.03;21.10;;;;;;;13.87;61.56;101812.75;714199;1173;115048;-73
2022/02/26 12:16:35;;;;;;;24.53;8.08;;;;;;;13.90;59.37;101808.09;717171;1174;115047;-73
2022/02/26 12:31:52;;;;;;;22.85;7.88;;;;;;;13.60;59.51;101817.41;715467;1174;114693;-74
2022/02/26 12:46:56;;;;;;;19.80;7.88;;;;;;;11.60;59.03;101835.22;714223;1174;114653;-74
2022/02/26 13:02:00;;;;;;;38.20;15.00;;;;;;;11.41;60.04;101843.52;714311;1173;114896;-75
2022/02/26 13:17:04;;;;;;;61.70;22.53;;;;;;;11.05;60.51;101863.40;714301;1174;114307;-74
2022/02/26 13:32:22;;;;;;;133.85;36.08;;;;;;;10.78;61.62;101878.20;713867;1174;114602;-76
2022/02/26 13:47:24;;;;;;;46.48;17.50;;;;;;;10.51;62.04;101885.19;714687;1174;115527;-75
2022/02/26 14:02:27;;;;;;;338.33;103.15;;;;;;;10.40;63.46;101894.56;713970;1174;114842;-75
2022/02/26 14:17:30;;;;;;;100.00;40.40;;;;;;;10.44;64.04;101909.17;714223;1174;115507;-76
2022/02/26 14:32:44;;;;;;;57.70;23.25;;;;;;;10.51;64.52;101924.55;714302;1174;116033;-75
2022/02/26 14:47:47;;;;;;;44.43;18.90;;;;;;;10.33;65.73;101932.56;714131;1174;114306;-76
2022/02/26 15:02:50;;;;;;;43.63;18.33;;;;;;;10.03;66.35;101964.95;714354;1174;114666;-76
2022/02/26 15:17:53;;;;;;;56.35;18.68;;;;;;;9.62;67.22;101989.14;714779;1174;114330;-75
2022/02/26 15:32:55;;;;;;;44.23;15.47;;;;;;;9.06;68.98;102005.31;714095;1174;114767;-75
2022/02/26 15:47:57;;;;;;;50.68;21.73;;;;;;;8.77;69.97;102033.05;714510;1173;114799;-74
2022/02/26 16:03:05;;;;;;;65.53;25.83;;;;;;;8.64;70.76;102056.39;714248;1173;114041;-77
2022/02/26 16:18:10;;;;;;;59.35;20.68;;;;;;;8.46;70.61;102069.50;714453;1174;114321;-78
2022/02/26 16:33:12;;;;;;;110.50;27.58;;;;;;;8.24;71.77;102102.85;714243;1173;115723;-78
2022/02/26 16:48:15;;;;;;;85.05;27.25;;;;;;;8.03;72.84;102109.97;714196;1174;115069;-78
2022/02/26 17:03:17;;;;;;;100.15;32.33;;;;;;;7.78;73.40;102134.65;714566;1173;115299;-77
2022/02/26 17:18:20;;;;;;;91.95;30.95;;;;;;;7.50;75.25;102149.83;714175;1173;116444;-76
2022/02/26 17:33:22;;;;;;;64.53;22.90;;;;;;;7.31;75.93;102180.28;714029;1174;115157;-75
2022/02/26 17:48:24;;;;;;;51.20;24.63;;;;;;;7.00;76.79;102176.41;714301;1174;114159;-76
2022/02/26 18:03:26;;;;;;;125.15;38.90;;;;;;;6.75;77.35;102190.48;714287;1174;114707;-76
2022/02/26 18:18:28;;;;;;;159.40;54.10;;;;;;;6.56;77.97;102194.75;714326;1173;115169;-75
2022/02/26 18:33:30;;;;;;;215.00;77.43;;;;;;;6.54;78.74;102228.72;714049;1174;115639;-76
2022/02/26 18:48:33;;;;;;;94.03;30.40;;;;;;;6.59;79.26;102225.94;714356;1174;114662;-74
2022/02/26 19:03:37;;;;;;;75.40;27.33;;;;;;;6.80;79.69;102248.53;714194;1173;115104;-74
2022/02/26 19:18:40;;;;;;;66.63;22.23;;;;;;;6.75;79.45;102247.87;714437;1174;115707;-77
2022/02/26 19:33:43;;;;;;;62.58;21.90;;;;;;;6.72;79.83;102281.91;714340;1174;114767;-77
2022/02/26 19:48:46;;;;;;;36.30;13.78;;;;;;;6.68;80.23;102282.95;714225;1174;115786;-77
2022/02/26 20:03:49;;;;;;;29.45;9.93;;;;;;;6.62;79.99;102298.83;714293;1174;114738;-75
2022/02/26 20:18:51;;;;;;;21.68;10.08;;;;;;;6.33;79.38;102308.63;714213;1173;114003;-76
2022/02/26 20:33:55;;;;;;;22.90;9.25;;;;;;;6.01;80.22;102328.08;714611;1173;114771;-77
2022/02/26 20:48:57;;;;;;;31.38;12.88;;;;;;;5.70;80.14;102348.22;714798;1174;114009;-76
2022/02/26 21:04:00;;;;;;;24.50;11.57;;;;;;;5.66;80.66;102370.91;715305;1173;114110;-77
2022/02/26 21:19:02;;;;;;;25.90;10.68;;;;;;;5.36;80.18;102377.12;714698;1174;115097;-76
2022/02/26 21:34:05;;;;;;;28.40;11.33;;;;;;;4.97;81.31;102392.20;715019;1174;114303;-77
2022/02/26 21:49:08;;;;;;;25.63;10.63;;;;;;;4.61;81.56;102402.81;714757;1174;115059;-77
2022/02/26 22:04:11;;;;;;;21.77;7.80;;;;;;;4.29;81.92;102414.15;714447;1174;115208;-76
2022/02/26 22:19:13;;;;;;;19.17;6.63;;;;;;;3.96;83.04;102430.59;714482;1173;113957;-78
2022/02/26 22:34:15;;;;;;;22.93;9.40;;;;;;;3.74;83.03;102435.47;714680;1174;114674;-77
2022/02/26 22:49:18;;;;;;;24.70;8.93;;;;;;;3.50;82.80;102440.37;713312;1174;113969;-77
2022/02/26 23:04:23;;;;;;;27.40;8.80;;;;;;;3.36;84.11;102459.76;713122;1174;115105;-77
2022/02/26 23:19:27;;;;;;;25.37;10.47;;;;;;;3.19;83.93;102452.35;712997;1173;114756;-78
2022/02/26 23:34:31;;;;;;;18.75;7.60;;;;;;;3.11;84.52;102479.30;713385;1173;114689;-78
2022/02/26 23:49:36;;;;;;;22.23;9.30;;;;;;;3.15;84.59;102478.38;713048;1174;114307;-77
